Time;durP1;ratioP1;P1;durP2;ratioP2;P2;SDS_P1;SDS_P2;PMS_P1;PMS_P2;Temp;Humidity;BMP_temperature;BMP_pressure;BME280_temperature;BME280_humidity;BME280_pressure;Samples;Min_cycle;Max_cycle;Signal;HPM_P1;HPM_P2
2022/08/15 00:01:22;;;;;;;12.20;10.00;;;;;;;23.04;66.46;100022.09;1832351;78;21391;-69
2022/08/15 00:03:54;;;;;;;10.93;9.83;;;;;;;23.03;66.48;100019.91;1829281;78;21442;-69
2022/08/15 00:06:25;;;;;;;11.13;9.60;;;;;;;23.03;66.39;100018.55;1832286;78;20924;-68
2022/08/15 00:08:55;;;;;;;10.45;9.43;;;;;;;23.02;66.42;100016.98;1829322;78;21384;-68
2022/08/15 00:11:27;;;;;;;9.87;8.87;;;;;;;23.04;66.35;100018.00;1832273;78;20975;-69
2022/08/15 00:14:03;;;;;;;10.63;9.53;;;;;;;23.05;66.31;100022.30;1830994;78;21240;-68
2022/08/15 00:16:35;;;;;;;10.73;9.67;;;;;;;23.04;66.24;100021.52;1823081;78;21379;-68
2022/08/15 00:19:07;;;;;;;10.50;9.40;;;;;;;23.00;66.29;100021.20;1831978;78;20991;-69
2022/08/15 00:21:39;;;;;;;11.53;9.90;;;;;;;22.97;66.39;100016.45;1832630;78;21549;-68
2022/08/15 00:24:06;;;;;;;12.45;9.98;;;;;;;22.93;66.46;100010.92;1827451;78;20991;-67
2022/08/15 00:26:34;;;;;;;11.77;10.13;;;;;;;22.89;66.60;100011.39;1832589;78;21169;-67
2022/08/15 00:29:03;;;;;;;11.00;9.10;;;;;;;22.82;66.69;100013.95;1831940;78;21014;-68
2022/08/15 00:31:33;;;;;;;11.20;9.87;;;;;;;22.81;66.79;100012.38;1813799;78;21011;-68
2022/08/15 00:34:02;;;;;;;11.07;9.97;;;;;;;22.76;66.88;100013.42;1801610;77;21435;-69
2022/08/15 00:36:30;;;;;;;11.63;10.43;;;;;;;22.71;67.09;100013.13;1852060;77;21006;-68
2022/08/15 00:39:00;;;;;;;10.67;9.67;;;;;;;22.68;67.23;100014.40;1851694;77;21820;-68
2022/08/15 00:41:40;;;;;;;11.23;10.13;;;;;;;22.65;67.33;100005.00;1852058;77;20995;-68
2022/08/15 00:44:13;;;;;;;11.17;9.30;;;;;;;22.65;67.40;100008.30;1851679;77;21011;-68
2022/08/15 00:46:43;;;;;;;10.90;9.70;;;;;;;22.65;67.36;100006.36;1852043;77;21031;-67
2022/08/15 00:49:10;;;;;;;10.83;9.47;;;;;;;22.64;67.40;99999.92;1851870;77;20964;-68
2022/08/15 00:51:55;;;;;;;11.33;10.23;;;;;;;22.64;67.41;100002.06;1852164;77;21100;-68
2022/08/15 00:54:38;;;;;;;10.60;9.60;;;;;;;22.65;67.38;99994.11;1851610;77;20920;-68
2022/08/15 00:57:09;;;;;;;11.10;10.03;;;;;;;22.63;67.41;99988.22;1851822;77;21249;-69
2022/08/15 00:59:43;;;;;;;;;;;;;;;22.63;67.43;99991.52;1854679;77;21042;-68
2022/08/15 01:02:12;;;;;;;10.30;9.20;;;;;;;22.63;67.43;99988.80;1852042;77;20430;-68
2022/08/15 01:04:38;;;;;;;10.83;9.73;;;;;;;22.62;67.45;99985.28;1851782;77;21354;-68
2022/08/15 01:07:07;;;;;;;10.70;9.57;;;;;;;22.61;67.46;99979.63;1850980;77;21296;-68
2022/08/15 01:09:36;;;;;;;10.83;9.83;;;;;;;22.60;67.46;99982.11;1847029;77;21031;-67
2022/08/15 01:12:10;;;;;;;11.17;9.97;;;;;;;22.61;67.39;99978.84;1842912;77;21552;-68
2022/08/15 01:14:38;;;;;;;10.80;9.03;;;;;;;22.62;67.36;99977.12;1778305;80;21540;-68
2022/08/15 01:17:07;;;;;;;10.90;9.67;;;;;;;22.62;67.31;99976.33;1790316;78;21146;-68
2022/08/15 01:19:45;;;;;;;10.23;9.17;;;;;;;22.59;67.32;99976.45;1788759;80;21031;-68
2022/08/15 01:22:23;;;;;;;11.53;9.63;;;;;;;22.58;67.41;99974.89;1774840;80;21010;-69
2022/08/15 01:25:19;;;;;;;11.73;9.47;;;;;;;22.56;67.43;99972.29;1779063;80;21505;-68
2022/08/15 01:28:07;;;;;;;10.53;9.53;;;;;;;22.55;67.46;99969.36;1788374;80;21047;-68
2022/08/15 01:30:40;;;;;;;12.30;9.53;;;;;;;22.52;67.35;99966.77;1812015;78;21115;-68
2022/08/15 01:33:08;;;;;;;9.87;8.87;;;;;;;22.57;67.25;99966.48;1820516;78;20963;-68
2022/08/15 01:35:35;;;;;;;10.47;9.37;;;;;;;22.58;67.15;99960.49;1820614;78;20995;-67
2022/08/15 01:38:03;;;;;;;10.60;9.37;;;;;;;22.58;67.10;99960.49;1820831;78;21042;-68
2022/08/15 01:40:50;;;;;;;9.47;8.13;;;;;;;22.59;67.03;99965.57;1820515;78;21517;-67
2022/08/15 01:43:18;;;;;;;14.17;9.27;;;;;;;22.61;66.98;99971.47;1803452;78;22264;-69
2022/08/15 01:45:44;;;;;;;10.90;9.77;;;;;;;22.63;66.86;99968.38;1761078;78;21530;-68
2022/08/15 01:48:20;;;;;;;12.07;9.07;;;;;;;22.64;66.74;99961.81;1820821;78;20963;-69
2022/08/15 01:50:50;;;;;;;9.50;8.60;;;;;;;22.65;66.68;99964.17;1820664;78;21062;-69
2022/08/15 01:53:35;;;;;;;11.43;9.75;;;;;;;22.69;66.60;99964.25;1820871;78;21913;-69
2022/08/15 01:56:13;;;;;;;10.13;8.73;;;;;;;22.64;66.57;99964.53;1820807;78;21058;-68
2022/08/15 01:58:42;;;;;;;10.37;8.47;;;;;;;22.61;66.58;99954.34;1835397;77;20916;-69
2022/08/15 02:01:14;;;;;;;9.57;8.50;;;;;;;22.63;66.56;99960.99;1849200;77;20916;-67
2022/08/15 02:03:43;;;;;;;10.58;9.30;;;;;;;22.66;66.52;99958.93;1851928;77;21113;-68
2022/08/15 02:06:17;;;;;;;10.70;8.23;;;;;;;22.69;66.37;99961.53;1851333;77;21034;-68
2022/08/15 02:08:45;;;;;;;9.77;8.77;;;;;;;22.73;66.25;99959.67;1832591;77;21204;-68
2022/08/15 02:11:16;;;;;;;10.57;8.43;;;;;;;22.77;66.13;99955.66;1820499;78;21023;-68
2022/08/15 02:13:46;;;;;;;10.47;8.47;;;;;;;22.80;66.04;99954.96;1820261;78;20975;-69
2022/08/15 02:16:16;;;;;;;8.80;7.87;;;;;;;22.82;65.97;99958.92;1788003;80;21576;-68
2022/08/15 02:18:42;;;;;;;9.73;8.70;;;;;;;22.86;65.79;99954.91;1788588;80;21042;-69
2022/08/15 02:21:09;;;;;;;9.90;8.40;;;;;;;22.89;65.72;99961.02;1788753;80;21112;-67
2022/08/15 02:23:36;;;;;;;8.90;7.97;;;;;;;22.96;65.62;99963.92;1788253;80;21517;-67
2022/08/15 02:26:06;;;;;;;10.40;8.30;;;;;;;23.01;65.37;99958.80;1788506;80;21061;-67
2022/08/15 02:28:33;;;;;;;9.10;8.20;;;;;;;23.04;65.18;99967.04;1802495;78;21058;-68
2022/08/15 02:31:01;;;;;;;10.37;8.37;;;;;;;23.09;65.11;99970.83;1820557;78;20940;-68
2022/08/15 02:33:28;;;;;;;8.97;7.73;;;;;;;23.17;65.01;99972.59;1820608;78;21085;-67
2022/08/15 02:35:56;;;;;;;11.20;8.83;;;;;;;23.21;64.75;99975.38;1820562;78;21601;-68
2022/08/15 02:38:23;;;;;;;9.33;8.43;;;;;;;23.26;64.57;99977.03;1820719;78;21023;-67
2022/08/15 02:40:53;;;;;;;9.85;8.85;;;;;;;23.29;64.54;99981.19;1787793;78;21451;-68
2022/08/15 02:43:22;;;;;;;10.20;7.73;;;;;;;23.31;64.33;99978.91;1820808;78;21090;-68
2022/08/15 02:46:00;;;;;;;9.10;7.77;;;;;;;23.32;64.27;99978.33;1820641;78;21582;-68
2022/08/15 02:48:27;;;;;;;9.23;8.20;;;;;;;23.32;64.22;99973.66;1820539;78;20939;-68
2022/08/15 02:50:54;;;;;;;9.27;8.30;;;;;;;23.32;64.13;99972.30;1820626;78;20952;-68
2022/08/15 02:53:30;;;;;;;10.50;8.17;;;;;;;23.30;64.14;99971.89;1820550;78;21098;-68
2022/08/15 02:56:06;;;;;;;9.30;8.30;;;;;;;23.28;64.16;99975.53;1820717;78;21003;-67
2022/08/15 02:58:41;;;;;;;9.10;8.13;;;;;;;23.30;64.24;99972.47;1820805;78;21240;-68
2022/08/15 03:01:18;;;;;;;8.90;8.08;;;;;;;23.29;64.25;99970.87;1820829;78;21038;-68
2022/08/15 03:03:56;;;;;;;11.17;8.83;;;;;;;23.27;64.26;99969.87;1820665;78;20999;-69
2022/08/15 03:06:32;;;;;;;9.48;8.40;;;;;;;23.28;64.21;99974.75;1821138;78;21078;-68
2022/08/15 03:09:09;;;;;;;10.00;8.00;;;;;;;23.28;64.20;99977.47;1820697;78;21623;-68
2022/08/15 03:11:39;;;;;;;9.23;8.10;;;;;;;23.28;64.18;99978.26;1820271;78;21104;-68
2022/08/15 03:14:09;;;;;;;11.33;8.20;;;;;;;23.26;64.20;99977.81;1820853;78;21144;-68
2022/08/15 03:16:40;;;;;;;9.67;8.37;;;;;;;23.27;64.25;99978.63;1786825;78;21034;-68
2022/08/15 03:19:24;;;;;;;9.65;8.30;;;;;;;23.25;64.31;99974.09;1821049;78;21153;-68
2022/08/15 03:21:58;;;;;;;10.00;8.80;;;;;;;23.24;64.39;99975.25;1820686;78;21075;-69
2022/08/15 03:24:26;;;;;;;8.43;7.60;;;;;;;23.21;64.47;99984.92;1821049;78;21126;-69
2022/08/15 03:26:54;;;;;;;9.87;8.87;;;;;;;23.21;64.61;99978.11;1820590;78;20940;-68
2022/08/15 03:29:23;;;;;;;9.10;8.20;;;;;;;23.20;64.73;99981.17;1820711;78;20956;-69
2022/08/15 03:31:52;;;;;;;10.67;8.90;;;;;;;23.20;64.71;99981.17;1820976;78;20999;-68
2022/08/15 03:34:23;;;;;;;9.37;8.33;;;;;;;23.17;64.75;99979.97;1820672;78;20979;-68
2022/08/15 03:37:11;;;;;;;9.53;8.07;;;;;;;23.19;64.83;99981.75;1820996;78;22017;-67
2022/08/15 03:39:39;;;;;;;10.87;8.80;;;;;;;23.21;64.79;99976.75;1786709;78;20995;-68
2022/08/15 03:42:11;;;;;;;9.97;9.07;;;;;;;23.24;64.71;99973.89;1820818;78;21047;-71
2022/08/15 03:44:38;;;;;;;9.23;8.30;;;;;;;23.24;64.72;99966.50;1815370;77;21075;-69
2022/08/15 03:47:06;;;;;;;9.13;8.23;;;;;;;23.26;64.65;99972.94;1826639;77;20971;-68
2022/08/15 03:49:36;;;;;;;12.17;8.93;;;;;;;23.29;64.60;99970.87;1842272;77;21043;-68
2022/08/15 03:52:06;;;;;;;11.90;9.27;;;;;;;23.29;64.55;99969.50;1820365;78;21058;-69
2022/08/15 03:54:35;;;;;;;11.03;9.20;;;;;;;23.27;64.58;99971.81;1787689;80;21058;-68
2022/08/15 03:57:02;;;;;;;9.80;8.73;;;;;;;23.28;64.57;99968.72;1852240;77;20952;-68
2022/08/15 03:59:29;;;;;;;12.00;9.37;;;;;;;23.30;64.55;99967.02;1851751;77;20936;-68
2022/08/15 04:01:56;;;;;;;10.60;8.83;;;;;;;23.32;64.51;99965.48;1845533;77;21218;-68
2022/08/15 04:04:23;;;;;;;9.20;8.30;;;;;;;23.37;64.41;99967.16;1851867;77;21074;-69
2022/08/15 04:06:52;;;;;;;9.83;8.77;;;;;;;23.38;64.39;99968.16;1852240;77;20952;-69
2022/08/15 04:09:18;;;;;;;12.10;9.33;;;;;;;23.41;64.28;99961.98;1850224;77;20980;-69
2022/08/15 04:11:48;;;;;;;11.20;9.07;;;;;;;23.46;64.21;99961.48;1852229;77;20979;-69
2022/08/15 04:14:17;;;;;;;10.93;9.40;;;;;;;23.45;64.17;99960.70;1851081;77;21136;-68
2022/08/15 04:16:46;;;;;;;11.17;8.63;;;;;;;23.47;64.09;99959.78;1849014;77;21019;-68
2022/08/15 04:19:15;;;;;;;10.77;9.53;;;;;;;23.45;64.17;99955.25;1852210;76;21054;-68
2022/08/15 04:21:43;;;;;;;9.33;8.30;;;;;;;23.51;64.20;99957.13;1851868;77;20983;-68
2022/08/15 04:24:10;;;;;;;9.30;8.40;;;;;;;23.50;64.24;99954.97;1848014;77;21023;-68
2022/08/15 04:26:38;;;;;;;9.57;8.53;;;;;;;23.52;64.21;99953.23;1829151;77;21183;-69
2022/08/15 04:29:04;;;;;;;10.70;9.43;;;;;;;23.55;64.21;99953.30;1821204;77;20988;-68
2022/08/15 04:31:31;;;;;;;9.77;8.63;;;;;;;23.60;64.13;99955.76;1851813;77;20968;-68
2022/08/15 04:33:58;;;;;;;12.07;9.37;;;;;;;23.64;64.00;99953.10;1851968;77;20924;-67
2022/08/15 04:36:26;;;;;;;10.30;8.73;;;;;;;23.69;63.89;99960.22;1851746;77;21074;-68
2022/08/15 04:38:53;;;;;;;10.83;9.20;;;;;;;23.77;63.86;99952.41;1851759;77;21864;-69
2022/08/15 04:41:20;;;;;;;9.77;8.70;;;;;;;23.88;63.61;99956.89;1851880;77;20972;-69
2022/08/15 04:43:48;;;;;;;10.20;8.30;;;;;;;23.97;63.32;99947.13;1851825;77;21183;-69
2022/08/15 04:46:18;;;;;;;10.00;8.43;;;;;;;24.02;63.09;99944.12;1851662;77;21038;-69
2022/08/15 04:48:45;;;;;;;9.67;8.67;;;;;;;24.03;63.03;99944.32;1851792;77;21062;-68
2022/08/15 04:51:13;;;;;;;9.50;8.50;;;;;;;24.07;62.85;99939.70;1851761;77;21115;-68
2022/08/15 04:53:40;;;;;;;10.20;9.07;;;;;;;24.15;62.51;99939.25;1851916;77;20980;-68
2022/08/15 04:56:08;;;;;;;10.10;9.10;;;;;;;24.17;62.43;99951.17;1851736;77;20948;-69
2022/08/15 04:58:37;;;;;;;10.33;8.90;;;;;;;24.19;62.45;99943.43;1851822;77;21073;-68
2022/08/15 05:01:08;;;;;;;10.20;9.20;;;;;;;24.21;62.38;99944.62;1851895;77;20971;-68
2022/08/15 05:03:37;;;;;;;10.73;8.83;;;;;;;24.24;62.23;99948.56;1851723;77;21718;-68
2022/08/15 05:06:08;;;;;;;10.67;8.53;;;;;;;24.29;62.20;99938.14;1818651;77;20983;-68
2022/08/15 05:08:37;;;;;;;10.03;9.03;;;;;;;24.37;61.97;99934.16;1852156;77;21541;-68
2022/08/15 05:11:16;;;;;;;10.65;9.53;;;;;;;24.45;61.90;99936.69;1851363;77;21026;-68
2022/08/15 05:13:45;;;;;;;12.97;9.63;;;;;;;24.53;61.60;99938.94;1852122;77;21422;-69
2022/08/15 05:16:14;;;;;;;9.27;8.37;;;;;;;24.62;61.27;99940.84;1851158;77;21649;-70
2022/08/15 05:18:42;;;;;;;9.67;8.67;;;;;;;24.59;61.46;99932.02;1851884;77;20937;-69
2022/08/15 05:21:10;;;;;;;9.97;8.90;;;;;;;24.65;61.59;99929.19;1851633;77;20983;-68
2022/08/15 05:23:39;;;;;;;9.03;8.23;;;;;;;24.73;61.30;99926.77;1846382;77;21172;-68
2022/08/15 05:26:06;;;;;;;9.87;8.73;;;;;;;24.85;60.95;99918.94;1837141;77;21555;-68
2022/08/15 05:28:35;;;;;;;10.43;8.70;;;;;;;24.99;60.74;99927.33;1852257;77;21087;-68
2022/08/15 05:31:07;;;;;;;9.00;8.10;;;;;;;25.23;59.93;99928.05;1790388;80;20940;-68
2022/08/15 05:33:36;;;;;;;9.75;8.75;;;;;;;25.35;59.57;99925.09;1847591;77;21009;-69
2022/08/15 05:36:05;;;;;;;9.57;8.57;;;;;;;25.43;59.26;99934.94;1852220;77;20961;-68
2022/08/15 05:38:55;;;;;;;9.87;8.87;;;;;;;25.47;59.29;99928.95;1790766;80;21130;-68
2022/08/15 05:41:48;;;;;;;10.43;8.90;;;;;;;25.46;58.94;99923.84;1844839;77;21239;-69
2022/08/15 05:44:29;;;;;;;9.87;8.87;;;;;;;25.43;58.80;99922.63;1850696;77;20969;-68
2022/08/15 05:47:14;;;;;;;10.17;8.53;;;;;;;25.41;59.01;99923.60;1851157;77;21025;-68
2022/08/15 05:49:58;;;;;;;8.63;7.80;;;;;;;25.42;58.98;99922.44;1851971;77;20969;-68
2022/08/15 05:52:53;;;;;;;9.70;8.73;;;;;;;25.45;58.90;99925.79;1851243;77;20992;-68
2022/08/15 05:55:46;;;;;;;10.63;8.87;;;;;;;25.49;58.65;99913.52;1851879;77;21404;-68
2022/08/15 05:58:45;;;;;;;9.93;8.60;;;;;;;25.54;58.18;99908.32;1846625;77;21056;-68
2022/08/15 06:01:32;;;;;;;9.90;8.90;;;;;;;25.44;58.29;99898.25;1849763;77;21062;-67
2022/08/15 06:04:07;;;;;;;10.03;9.00;;;;;;;25.43;58.83;99906.81;1860833;77;20987;-69
2022/08/15 06:06:38;;;;;;;9.90;8.90;;;;;;;25.41;58.53;99909.93;1831986;77;20943;-67
2022/08/15 06:09:44;;;;;;;9.77;8.77;;;;;;;25.40;58.68;99902.90;1860951;77;21499;-68
2022/08/15 06:12:25;;;;;;;10.00;8.77;;;;;;;25.43;58.43;99899.39;1826856;77;21000;-69
2022/08/15 06:14:57;;;;;;;8.77;7.93;;;;;;;25.43;58.54;99899.39;1860829;77;20948;-69
2022/08/15 06:17:36;;;;;;;9.77;8.77;;;;;;;25.46;58.16;99910.95;1861002;77;21054;-69
2022/08/15 06:20:07;;;;;;;10.57;8.23;;;;;;;25.49;58.17;99911.57;1861027;77;21208;-69
2022/08/15 06:23:08;;;;;;;8.97;8.07;;;;;;;25.56;58.13;99916.92;1854553;77;21502;-69
2022/08/15 06:25:54;;;;;;;9.10;7.95;;;;;;;25.60;57.90;99920.47;1842679;77;21406;-68
2022/08/15 06:28:44;;;;;;;9.20;8.13;;;;;;;25.63;57.11;99919.73;1848112;77;21114;-69
2022/08/15 06:31:30;;;;;;;8.77;7.63;;;;;;;25.65;56.87;99916.83;1838862;77;21011;-67
2022/08/15 06:34:40;;;;;;;9.00;8.10;;;;;;;25.71;57.05;99926.86;1848791;77;21463;-68
2022/08/15 06:37:19;;;;;;;8.93;7.57;;;;;;;25.74;56.41;99918.69;1849167;77;21132;-68
2022/08/15 06:40:09;;;;;;;8.83;7.93;;;;;;;25.79;56.57;99916.77;1849270;77;20960;-69
2022/08/15 06:42:43;;;;;;;8.60;7.70;;;;;;;25.77;55.96;99911.69;1849659;77;21047;-69
2022/08/15 06:45:26;;;;;;;8.60;7.80;;;;;;;25.76;56.24;99910.09;1849113;77;21039;-68
2022/08/15 06:48:07;;;;;;;8.93;7.80;;;;;;;25.79;56.20;99905.83;1849589;77;21026;-69
2022/08/15 06:50:41;;;;;;;8.50;7.60;;;;;;;25.78;56.37;99910.52;1849198;77;21391;-70
2022/08/15 06:53:34;;;;;;;9.93;7.60;;;;;;;25.77;56.33;99909.54;1818584;77;20987;-68
2022/08/15 06:56:25;;;;;;;9.00;7.73;;;;;;;25.74;56.11;99920.06;1849114;77;21565;-70
2022/08/15 06:59:13;;;;;;;9.25;7.67;;;;;;;25.75;56.09;99922.21;1849751;77;21050;-68
2022/08/15 07:02:03;;;;;;;8.90;7.47;;;;;;;25.72;55.78;99918.85;1849500;77;21035;-68
2022/08/15 07:05:10;;;;;;;10.20;8.10;;;;;;;25.75;55.74;99929.05;1849166;77;21111;-69
2022/08/15 07:07:58;;;;;;;8.47;7.50;;;;;;;25.76;55.94;99928.47;1849487;77;20979;-69
2022/08/15 07:10:41;;;;;;;8.60;7.70;;;;;;;25.83;55.90;99924.45;1849425;77;20975;-68
2022/08/15 07:13:16;;;;;;;8.73;7.40;;;;;;;25.91;55.61;99936.47;1849242;77;20968;-68
2022/08/15 07:16:09;;;;;;;8.37;7.40;;;;;;;26.01;55.27;99927.38;1849420;77;20948;-68
2022/08/15 07:18:44;;;;;;;10.17;7.30;;;;;;;26.13;54.78;99937.48;1844824;77;21220;-69
2022/08/15 07:21:17;;;;;;;7.73;6.93;;;;;;;26.30;54.96;99937.42;1842979;77;20999;-69
2022/08/15 07:24:04;;;;;;;9.45;7.15;;;;;;;26.53;53.92;99937.83;1766268;80;21051;-69
2022/08/15 07:26:47;;;;;;;8.70;7.80;;;;;;;26.64;53.51;99934.58;1789923;80;21533;-69
2022/08/15 07:29:28;;;;;;;8.40;7.60;;;;;;;26.83;53.07;99941.16;1790033;80;20928;-68
2022/08/15 07:32:24;;;;;;;9.20;7.13;;;;;;;27.02;52.85;99938.73;1766387;80;21117;-68
2022/08/15 07:35:04;;;;;;;8.40;7.33;;;;;;;27.14;52.66;99941.74;1790516;78;21012;-69
2022/08/15 07:37:34;;;;;;;7.90;7.20;;;;;;;27.24;52.38;99942.38;1790319;80;20995;-69
2022/08/15 07:40:10;;;;;;;7.97;6.97;;;;;;;27.34;52.50;99941.67;1790146;80;21031;-69
2022/08/15 07:42:41;;;;;;;7.40;6.60;;;;;;;27.43;51.62;99944.62;1789332;80;21083;-68
2022/08/15 07:45:20;;;;;;;8.10;7.00;;;;;;;27.44;51.50;99948.34;1789956;80;21229;-68
2022/08/15 07:48:02;;;;;;;7.63;6.10;;;;;;;27.43;50.90;99951.48;1789036;78;21015;-68
2022/08/15 07:50:39;;;;;;;9.80;6.90;;;;;;;27.49;51.25;99954.05;1832052;78;21573;-70
2022/08/15 07:53:20;;;;;;;8.37;6.60;;;;;;;27.46;50.63;99943.85;1828538;78;21101;-68
2022/08/15 07:56:14;;;;;;;7.43;6.63;;;;;;;27.48;50.78;99947.00;1832322;78;21055;-69
2022/08/15 07:58:42;;;;;;;7.70;6.90;;;;;;;27.56;51.19;99953.48;1831988;78;21459;-70
2022/08/15 08:01:28;;;;;;;11.50;6.60;;;;;;;27.60;50.20;99957.61;1799721;78;20956;-68
2022/08/15 08:04:00;;;;;;;10.10;6.97;;;;;;;27.61;49.58;99953.70;1831041;78;20979;-69
2022/08/15 08:06:42;;;;;;;7.17;6.47;;;;;;;27.59;49.65;99951.34;1831214;78;20986;-68
2022/08/15 08:09:24;;;;;;;6.70;5.92;;;;;;;27.73;50.10;99963.53;1738161;79;21009;-68
2022/08/15 08:12:30;;;;;;;7.40;6.10;;;;;;;27.73;50.10;99963.53;1767143;81;21220;-68
2022/08/15 08:15:30;;;;;;;8.87;6.53;;;;;;;27.80;49.33;99967.09;1767055;81;21416;-68
2022/08/15 08:18:08;;;;;;;7.43;6.47;;;;;;;27.85;48.59;99962.42;1697414;84;21647;-69
2022/08/15 08:20:55;;;;;;;6.70;5.43;;;;;;;27.93;48.61;99962.63;1686758;83;21146;-68
2022/08/15 08:23:42;;;;;;;7.13;6.07;;;;;;;28.08;48.92;99951.09;1755819;79;20990;-70
2022/08/15 08:26:39;;;;;;;6.80;5.90;;;;;;;28.23;47.86;99942.48;1762508;81;21127;-69
2022/08/15 08:29:36;;;;;;;7.60;6.10;;;;;;;28.42;47.83;99942.69;1762115;81;21368;-68
2022/08/15 08:32:28;;;;;;;6.80;6.03;;;;;;;28.64;46.87;99951.71;1754506;81;21098;-68
2022/08/15 08:35:10;;;;;;;8.10;6.37;;;;;;;28.87;46.41;99944.41;1761748;81;21451;-69
2022/08/15 08:38:02;;;;;;;7.70;5.67;;;;;;;29.02;45.50;99941.64;1761574;81;21437;-68
2022/08/15 08:43:49;;;;;;;7.57;5.80;;;;;;;29.21;46.16;99956.31;1788706;80;21090;-68
2022/08/15 08:47:11;;;;;;;8.30;5.60;;;;;;;29.24;46.06;99947.87;1788539;80;20968;-68
2022/08/15 08:49:43;;;;;;;6.75;5.65;;;;;;;29.25;45.84;99959.05;1788459;80;21006;-68
2022/08/15 08:52:42;;;;;;;8.83;6.50;;;;;;;29.23;45.31;99958.09;1787718;80;20961;-69
2022/08/15 08:55:26;;;;;;;6.97;5.83;;;;;;;29.18;44.96;99957.89;1788514;80;21237;-69
2022/08/15 08:57:59;;;;;;;6.13;5.50;;;;;;;29.14;45.26;99965.38;1788216;80;21057;-69
2022/08/15 09:00:31;;;;;;;6.67;5.67;;;;;;;29.01;45.08;99968.36;1788682;80;21007;-68
2022/08/15 09:03:04;;;;;;;7.00;5.63;;;;;;;28.94;45.54;99979.34;1788475;80;21057;-68
2022/08/15 09:05:36;;;;;;;6.10;5.33;;;;;;;28.96;45.08;99972.28;1788525;80;21501;-69
2022/08/15 09:08:15;;;;;;;7.73;6.00;;;;;;;29.00;45.46;99972.30;1755808;80;21215;-68
2022/08/15 09:10:46;;;;;;;6.73;5.87;;;;;;;29.07;45.47;99972.87;1788344;80;21526;-69
2022/08/15 09:16:16;;;;;;;8.60;5.63;;;;;;;29.20;45.07;99972.03;1788608;80;21097;-69
2022/08/15 09:18:55;;;;;;;8.63;5.73;;;;;;;29.23;45.33;99960.84;1758525;80;21040;-68
2022/08/15 09:21:22;;;;;;;7.37;5.23;;;;;;;29.23;44.66;99946.31;1798915;79;21585;-69
2022/08/15 09:23:50;;;;;;;7.63;5.37;;;;;;;29.23;44.51;99953.96;1820681;78;20940;-69
2022/08/15 09:26:50;;;;;;;8.43;5.87;;;;;;;29.32;45.05;99954.89;1823180;77;21043;-68
2022/08/15 09:29:28;;;;;;;6.53;5.07;;;;;;;29.39;44.88;99959.02;1825761;77;21058;-69
2022/08/15 09:32:29;;;;;;;7.90;5.17;;;;;;;29.43;44.06;99951.52;1788700;80;20959;-69
2022/08/15 09:35:34;;;;;;;8.58;4.95;;;;;;;29.40;43.64;99959.98;1788408;80;21229;-68
2022/08/15 09:38:40;;;;;;;8.40;5.17;;;;;;;29.43;43.11;99952.30;1788442;80;21478;-68
2022/08/15 09:41:20;;;;;;;7.47;5.10;;;;;;;29.35;43.94;99936.22;1788345;80;21078;-69
2022/08/15 09:44:29;;;;;;;5.37;4.87;;;;;;;29.30;43.81;99920.92;1788405;80;21046;-70
2022/08/15 09:47:45;;;;;;;7.30;4.80;;;;;;;29.23;43.09;99911.33;1788563;80;21025;-69
2022/08/15 09:50:35;;;;;;;5.87;4.83;;;;;;;29.10;43.37;99912.36;1788299;80;21679;-69
2022/08/15 09:53:37;;;;;;;8.03;5.13;;;;;;;28.94;43.04;99907.88;1789469;80;20983;-69
2022/08/15 09:56:08;;;;;;;7.25;4.50;;;;;;;28.82;43.33;99906.91;1788956;80;20979;-67
2022/08/15 09:58:45;;;;;;;8.47;5.83;;;;;;;28.80;44.26;99907.92;1788617;80;21054;-68
2022/08/15 10:01:31;;;;;;;8.33;4.87;;;;;;;28.82;44.11;99909.66;1788569;80;21014;-69
2022/08/15 10:04:02;;;;;;;9.30;5.07;;;;;;;28.88;44.57;99916.33;1788331;80;21271;-70
2022/08/15 10:07:04;;;;;;;8.58;5.12;;;;;;;28.93;44.83;99898.84;1789803;80;21022;-70
2022/08/15 10:09:35;;;;;;;7.13;5.27;;;;;;;28.96;44.29;99895.89;1789624;80;20999;-70
2022/08/15 10:12:17;;;;;;;7.85;4.90;;;;;;;28.94;44.34;99888.03;1789681;80;21034;-69
2022/08/15 10:15:02;;;;;;;;;;;;;;;28.89;44.96;99901.39;1791979;78;20956;-69
2022/08/15 10:17:39;;;;;;;8.63;5.20;;;;;;;28.75;45.41;99921.45;1800911;77;21493;-69
2022/08/15 10:20:22;;;;;;;9.77;5.27;;;;;;;28.72;45.70;99920.88;1851769;77;21466;-69
2022/08/15 10:22:57;;;;;;;7.00;5.20;;;;;;;28.72;45.66;99919.50;1851539;77;21003;-68
2022/08/15 10:25:45;;;;;;;7.47;5.00;;;;;;;28.63;45.76;99928.73;1851614;77;20983;-71
2022/08/15 10:28:40;;;;;;;7.93;4.80;;;;;;;28.59;45.87;99928.73;1851139;77;38109;-69
2022/08/15 10:31:16;;;;;;;6.27;4.50;;;;;;;28.54;45.92;99916.02;1820826;77;21236;-69
2022/08/15 10:33:52;;;;;;;9.17;5.07;;;;;;;28.41;45.00;99904.64;1851498;77;20955;-67
2022/08/15 10:36:35;;;;;;;7.23;5.50;;;;;;;28.25;45.25;99894.80;1851882;77;20935;-69
2022/08/15 10:39:31;;;;;;;10.23;5.70;;;;;;;28.14;46.28;99872.06;1851826;77;21427;-69
2022/08/15 10:42:28;;;;;;;7.97;5.57;;;;;;;27.96;46.69;99863.81;1851763;77;20979;-68
2022/08/15 10:45:35;;;;;;;8.47;5.17;;;;;;;27.88;47.72;99861.48;1837442;77;21090;-69
2022/08/15 10:48:24;;;;;;;8.93;5.47;;;;;;;27.81;47.49;99864.41;1851571;77;21007;-68
2022/08/15 10:51:38;;;;;;;10.33;5.50;;;;;;;27.72;47.87;99849.47;1851686;77;21066;-68
2022/08/15 10:54:44;;;;;;;8.10;5.17;;;;;;;27.68;48.14;99847.31;1851783;77;21529;-68
2022/08/15 10:57:15;;;;;;;9.80;5.20;;;;;;;27.64;48.38;99851.43;1851917;77;20960;-69
2022/08/15 10:59:55;;;;;;;6.80;4.97;;;;;;;27.65;48.48;99859.84;1819688;77;21109;-68
2022/08/15 11:02:47;;;;;;;9.17;4.97;;;;;;;27.68;48.51;99852.21;1813359;78;21078;-70
2022/08/15 11:05:22;;;;;;;7.57;4.93;;;;;;;27.74;48.67;99864.94;1817829;77;21003;-68
2022/08/15 11:07:56;;;;;;;8.77;5.30;;;;;;;27.76;49.24;99896.34;1796623;78;21010;-68
2022/08/15 11:10:32;;;;;;;7.73;4.70;;;;;;;27.80;49.09;99902.61;1795280;78;21046;-68
2022/08/15 11:13:08;;;;;;;7.10;4.97;;;;;;;27.82;49.54;99901.64;1824322;78;21011;-68
2022/08/15 11:16:01;;;;;;;9.97;5.00;;;;;;;27.78;49.71;99889.10;1824807;78;21109;-69
2022/08/15 11:18:54;;;;;;;10.47;5.50;;;;;;;27.78;49.33;99884.39;1826608;77;21081;-69
2022/08/15 11:22:01;;;;;;;8.07;5.37;;;;;;;27.77;49.48;99869.67;1816711;76;20954;-68
2022/08/15 11:24:37;;;;;;;11.63;5.90;;;;;;;27.68;49.82;99863.19;1827124;78;20920;-68
2022/08/15 11:27:24;;;;;;;7.60;5.50;;;;;;;27.55;50.35;99868.26;1823666;78;20919;-68
2022/08/15 11:30:00;;;;;;;9.27;5.23;;;;;;;27.44;51.09;99876.25;1826049;78;20995;-69
2022/08/15 11:32:37;;;;;;;9.03;5.53;;;;;;;27.29;51.58;99883.66;1825747;78;21007;-67
2022/08/15 11:35:31;;;;;;;8.00;6.03;;;;;;;27.21;51.89;99882.05;1829699;78;20991;-68
2022/08/15 11:38:03;;;;;;;10.90;6.30;;;;;;;27.13;51.93;99882.02;1789416;79;21514;-68
2022/08/15 11:41:24;;;;;;;11.80;6.85;;;;;;;27.11;52.12;99887.66;1818858;79;21134;-69
2022/08/15 11:43:13;;;;;;;9.83;6.57;;;;;;;27.10;52.36;99888.84;1785113;79;21045;-68
2022/08/15 11:45:49;;;;;;;10.93;6.30;;;;;;;27.12;52.64;99909.80;1816444;79;20988;-69
2022/08/15 11:48:36;;;;;;;9.20;5.40;;;;;;;27.10;52.80;99911.55;1818556;78;21013;-69
2022/08/15 11:51:21;;;;;;;;;;;;;;;;;;;;;
2022/08/15 11:53:55;;;;;;;;;;;;;;;;;;;;;
2022/08/15 11:56:23;;;;;;;9.73;5.70;;;;;;;27.13;52.46;99917.66;1815200;77;21033;-68
2022/08/15 11:59:06;;;;;;;7.57;5.23;;;;;;;27.19;52.58;99924.16;1828852;77;21466;-69
2022/08/15 12:01:37;;;;;;;7.67;5.20;;;;;;;27.24;52.35;99921.03;1847952;77;20987;-68
2022/08/15 12:04:14;;;;;;;6.47;4.70;;;;;;;27.23;50.87;99924.36;1841644;77;21506;-69
2022/08/15 12:06:50;;;;;;;6.83;5.07;;;;;;;27.25;50.87;99917.92;1849486;77;21100;-69
2022/08/15 12:09:36;;;;;;;;;;;;;;;;;;;;;
2022/08/15 12:12:10;;;;;;;;;;;;;;;;;;;;;
2022/08/15 12:14:36;;;;;;;7.30;4.90;;;;;;;27.30;50.06;99916.75;1818340;78;21422;-69
2022/08/15 12:17:18;;;;;;;7.80;5.20;;;;;;;27.31;49.90;99910.90;1781150;78;21505;-70
2022/08/15 12:19:48;;;;;;;8.43;5.30;;;;;;;27.30;49.83;99904.41;1768415;78;21046;-69
2022/08/15 12:22:38;;;;;;;7.47;5.07;;;;;;;27.29;49.82;99902.27;1824211;77;20936;-69
2022/08/15 12:25:18;;;;;;;;;;;;;;;;;;;;;
2022/08/15 12:27:45;;;;;;;7.77;5.10;;;;;;;27.36;49.81;99886.42;1815955;78;21031;-68
2022/08/15 12:30:22;;;;;;;9.80;5.63;;;;;;;27.36;50.03;99880.34;1823449;78;21615;-69
2022/08/15 12:33:01;;;;;;;;;;;;;;;;;;;;;